GHG weather

Marshfield Municipal George Harlow Field
Marshfield, Massachusetts, United States

Public forecast

Using degrees Fahrenheit for public forecast. Weather courtesy of forecast.io.

Current aviation weather report (METAR) for Marshfield Municipal George Harlow Field

Retrieved 2020/08/03 18:15 UTC (0 seconds ago):

KGHG 031815Z AUTO 24012G21KT 210V270 10SM CLR 35/18 A2992 RMK AO2

Closest aviation forecast (TAF) to Marshfield Municipal George Harlow Field

Closest forecast is General Edward Lawrence Logan International Airport, 21.8 nm (40.3 km) NW. Retrieved 2020/08/03 18:42 UTC (0 seconds ago):

TAF KBOS 031735Z 0318/0424 25013G24KT P6SM FEW180 FM040600 23003KT P6SM SCT120 FM041100 16004KT P6SM BKN120 FM041700 13007KT P6SM VCSH OVC040 FM042200 15014G21KT P6SM -SHRA BKN028